Lipscomb, TX (79056)

10:33 AM CDT on July 29, 2014 (GMT -0500)
Zender Laundromat (KTXBOOKE2) Elev 2844 ft | 36.45 °N, 100.54 °W | Change Station
Active Advisory: Flash Flood Watch

Current weather conditions updated 6 seconds ago

Rain
Rain
65.8 °F
Feels Like 65.8 °F
N
5.4
Wind Variable Wind from SSW
Gusts 15.9 mph

Today is forecast to be nearly the same temperature as yesterday. Thunderstorms tonight.

Today
High -- | Low -- °F
--% Chance of Precip.
Yesterday
High -- | Low -- °F
Precip. -- in
6:45 AM 8:49 PM
Waxing Crescent, 6% visible
Pressure 30.25 in
Visibility 10.0 miles
Clouds Mostly Cloudy 4300 ft
Overcast 6000 ft
Dew Point 66 °F
Humidity 99%
Rainfall 0.11 in
Snow Depth Not available.
UV 2 out of 12
Pollen 1.20 out of 12
Air Quality Not available.
Flu Activity Not available.
METAR KHHF 291515Z AUTO 16009KT 10SM RA BKN043 OVC060 18/16 A3025 RMK AO2 T01830161

More Conditions Fewer Conditions

Pressure 30.25 in
Visibility 10.0 miles
Clouds Mostly Cloudy 4300 ft
Overcast 6000 ft
Dew Point 66 °F
Humidity 99%
Rainfall 0.11 in
Snow Depth Not available.
UV 2 out of 12
Pollen 1.20 out of 12
Air Quality Not available.
Flu Activity Not available.
METAR KHHF 291515Z AUTO 16009KT 10SM RA BKN043 OVC060 18/16 A3025 RMK AO2 T01830161

More Conditions Fewer Conditions

10-Day Weather Forecast

Almanac

Astronomy

Jul. 29, 2014 Rise Set
Actual Time 6:45 AM CDT 8:49 PM CDT
Civil Twilight 6:17 AM CDT 9:17 PM CDT
Nautical Twilight 5:42 AM CDT 9:52 PM CDT
Astronomical Twilight 5:04 AM CDT 10:29 PM CDT
Moon 9:17 AM CDT 10:09 PM CDT
Length of Visible Light 15h 00m
Length of Day
14h 03m
Tomorrow will be 1m 39s shorter.
Waxing Crescent, 6% of the Moon is Illuminated
Today
Waxing Crescent
Aug 3
First Quarter
Aug 10
Full
Aug 17
Last Quarter
Aug 25
New

Today's Extremes

State Highs State Lows

Community

WunderPhotos

Upload Photos

1,738,770 photos uploaded!

Nearby

Snow Depth

Station Depth Elevation
No new snow has been reported.

Earthquake Activity

City Distance Mag. Time & Date
No recent earthquake activity has been reported nearby.
Minimum magnitude displayed is 2.5.

Coastal Water Temperatures

Place Temperature
No Stations Reporting

Nearby Weather Stations

Station Location Temp. Dew Point Humidity Wind Precip. Elev Updated Type
Zender Laundromat, Booker, TX 65.8 °F 66 °F 99% SSW  at  5.4 mph 0.11 in / hr 2844 ft 10:33 AM CDT Rapid Fire

Show More Stations Show Fewer Stations